Alkabo, North Dakota
Current Conditions -  °F | °C
As of 9:52 PM on Wednesday 22 Oct 2014 (Local Time) from KISN Reporting Station
Clear Clear  
Wind Chill: 11°   Ceiling: Unl
Heat Index: 11°   Visibility: 10mi
Dew Point:   Wind: 13mph
Humidity: 49%   Direction: 260°W
Pressure: 29.87"   Gusts: NA
Location:  48.5901°N, 103.922°W
Report Text: KISN 230252Z AUTO 26011KT 10SM CLR 11/01 A2987 RMK AO2 SLP119 T01110006 51014
Loading
Personal Weather Stations






























Interactive Weather Map
Tropical Storm Tracking
New forecast layout! Learn more

10-Day Weather Forecast

Advertisements
Track Severe Weather on mobile